createdAt,value
2022-08-24T00:01:43.578Z,99.90
2022-08-24T00:03:46.082Z,99.90
2022-08-24T00:05:47.976Z,99.90
2022-08-24T00:07:49.981Z,99.90
2022-08-24T00:09:51.626Z,99.90
2022-08-24T00:11:53.243Z,99.90
2022-08-24T00:13:55.071Z,99.90
2022-08-24T00:15:57.186Z,99.90
2022-08-24T00:18:00.524Z,99.90
2022-08-24T00:20:02.710Z,99.90
2022-08-24T00:22:04.572Z,99.90
2022-08-24T00:24:06.738Z,99.90
2022-08-24T00:26:08.865Z,99.90
2022-08-24T00:28:10.520Z,99.90
2022-08-24T00:30:15.416Z,99.90
2022-08-24T00:32:17.104Z,99.90
2022-08-24T00:34:20.317Z,99.90
2022-08-24T00:36:22.520Z,99.90
2022-08-24T00:38:24.162Z,99.90
2022-08-24T00:40:40.683Z,99.90
2022-08-24T00:42:42.354Z,99.90
2022-08-24T00:44:44.039Z,99.90
2022-08-24T00:46:55.106Z,99.90
2022-08-24T00:49:01.891Z,99.90
2022-08-24T00:51:06.386Z,99.90
2022-08-24T00:53:15.704Z,99.90
2022-08-24T00:55:19.413Z,99.90
2022-08-24T00:57:23.643Z,99.90
2022-08-24T00:59:37.525Z,99.90
2022-08-24T01:01:39.839Z,99.90
2022-08-24T01:03:43.308Z,99.90
2022-08-24T01:05:46.021Z,99.90
2022-08-24T01:07:49.294Z,99.90
2022-08-24T01:09:54.537Z,99.90
2022-08-24T01:11:56.632Z,99.90
2022-08-24T01:13:58.340Z,99.90
2022-08-24T01:16:02.890Z,99.90
2022-08-24T01:18:24.278Z,99.90
2022-08-24T01:20:26.915Z,99.90
2022-08-24T01:22:40.743Z,99.90
2022-08-24T01:24:42.792Z,99.90
2022-08-24T01:26:48.625Z,99.90
2022-08-24T01:28:51.990Z,99.90
2022-08-24T01:30:53.901Z,99.90
2022-08-24T01:32:56.711Z,99.90
2022-08-24T01:34:59.304Z,99.90
2022-08-24T01:37:01.985Z,99.90
2022-08-24T01:39:08.164Z,99.90
2022-08-24T01:41:09.881Z,99.90
2022-08-24T01:43:15.085Z,99.90
2022-08-24T01:45:16.968Z,99.90
2022-08-24T01:47:18.727Z,99.90
2022-08-24T01:49:22.379Z,99.90
2022-08-24T01:51:24.511Z,99.90
2022-08-24T01:53:26.359Z,99.90
2022-08-24T01:55:28.703Z,99.90
2022-08-24T01:57:30.428Z,99.90
2022-08-24T01:59:32.475Z,99.90
2022-08-24T02:01:37.419Z,99.90
2022-08-24T02:03:39.766Z,99.90
2022-08-24T02:05:41.546Z,99.90
2022-08-24T02:07:43.345Z,99.90
2022-08-24T02:09:45.237Z,99.90
2022-08-24T02:11:47.874Z,99.90
2022-08-24T02:13:49.514Z,99.90
2022-08-24T02:15:51.168Z,99.90
2022-08-24T02:17:53.227Z,99.90
2022-08-24T02:19:54.923Z,99.90
2022-08-24T02:21:56.509Z,99.90
2022-08-24T02:23:58.319Z,99.90
2022-08-24T02:26:00.876Z,99.90
2022-08-24T02:28:02.560Z,99.90
2022-08-24T02:30:04.535Z,99.90
2022-08-24T02:32:07.164Z,99.90
2022-08-24T02:34:09.154Z,99.90
2022-08-24T02:36:25.074Z,99.90
2022-08-24T02:38:27.594Z,99.90
2022-08-24T02:40:29.608Z,99.90
2022-08-24T02:42:31.557Z,99.90
2022-08-24T02:44:33.188Z,99.90
2022-08-24T02:46:35.006Z,99.90
2022-08-24T02:48:37.095Z,99.90
2022-08-24T02:50:39.724Z,99.90
2022-08-24T02:52:42.216Z,99.90
2022-08-24T02:54:43.912Z,99.90
2022-08-24T02:56:45.871Z,99.90
2022-08-24T02:58:48.028Z,99.90
2022-08-24T03:00:54.794Z,99.90
2022-08-24T03:02:56.650Z,99.90
2022-08-24T03:04:58.302Z,99.90
2022-08-24T03:06:59.963Z,99.90
2022-08-24T03:09:01.834Z,99.90
2022-08-24T03:11:04.110Z,99.90
2022-08-24T03:13:07.573Z,99.90
2022-08-24T03:15:10.688Z,99.90
2022-08-24T03:17:12.391Z,99.90
2022-08-24T03:19:15.435Z,99.90
2022-08-24T03:21:17.435Z,99.90
2022-08-24T03:23:19.130Z,99.90
2022-08-24T03:25:21.518Z,99.90
2022-08-24T03:27:23.147Z,99.90
2022-08-24T03:29:24.786Z,99.90
2022-08-24T03:31:27.020Z,99.90
2022-08-24T03:33:28.669Z,99.90
2022-08-24T03:35:30.276Z,99.90
2022-08-24T03:37:32.856Z,99.90
2022-08-24T03:39:34.784Z,99.90
2022-08-24T03:41:36.787Z,99.90
2022-08-24T03:43:46.310Z,99.90
2022-08-24T03:45:47.986Z,99.90
2022-08-24T03:47:49.781Z,99.90
2022-08-24T03:49:51.441Z,99.90
2022-08-24T03:51:53.212Z,99.90
2022-08-24T03:53:55.556Z,99.90
2022-08-24T03:55:57.221Z,99.90
2022-08-24T03:57:59.822Z,99.90
2022-08-24T04:00:02.532Z,99.90
2022-08-24T04:02:04.493Z,99.90
2022-08-24T04:04:10.113Z,99.90
2022-08-24T04:06:12.731Z,99.90
2022-08-24T04:08:15.012Z,99.90
2022-08-24T04:10:19.545Z,99.90
2022-08-24T04:12:23.314Z,99.90
2022-08-24T04:14:27.318Z,99.90
2022-08-24T04:16:29.932Z,99.90
2022-08-24T04:18:31.710Z,99.90
2022-08-24T04:20:38.205Z,99.90
2022-08-24T04:22:39.833Z,99.90
2022-08-24T04:24:41.506Z,99.90
2022-08-24T04:26:45.702Z,99.90
2022-08-24T04:28:47.878Z,99.90
2022-08-24T04:30:52.797Z,99.90
2022-08-24T04:32:54.490Z,99.90
2022-08-24T04:34:57.256Z,99.90
2022-08-24T04:36:59.069Z,99.90
2022-08-24T04:39:01.139Z,99.90
2022-08-24T04:41:06.841Z,99.90
2022-08-24T04:43:09.085Z,99.90
2022-08-24T04:45:10.857Z,99.90
2022-08-24T04:47:12.548Z,99.90
2022-08-24T04:49:14.291Z,99.90
2022-08-24T04:51:18.448Z,99.90
2022-08-24T04:53:20.288Z,99.90
2022-08-24T04:55:21.964Z,99.90
2022-08-24T04:57:23.669Z,99.90
2022-08-24T04:59:25.315Z,99.90
2022-08-24T05:01:28.134Z,99.90
2022-08-24T05:03:29.783Z,99.90
2022-08-24T05:05:32.726Z,99.90
2022-08-24T05:07:34.905Z,99.90
2022-08-24T05:09:36.524Z,99.90
2022-08-24T05:11:40.278Z,99.90
2022-08-24T05:13:41.919Z,99.90
2022-08-24T05:15:46.094Z,99.90
2022-08-24T05:17:50.954Z,99.90
2022-08-24T05:19:53.411Z,99.90
2022-08-24T05:21:55.095Z,99.90
2022-08-24T05:23:56.926Z,99.90
2022-08-24T05:26:10.297Z,99.90
2022-08-24T05:28:12.188Z,99.90
2022-08-24T05:30:14.266Z,99.90
2022-08-24T05:32:17.705Z,99.90
2022-08-24T05:34:19.376Z,99.90
2022-08-24T05:36:22.403Z,99.90
2022-08-24T05:38:24.043Z,99.90
2022-08-24T05:40:25.823Z,99.90
2022-08-24T05:42:35.706Z,99.90
2022-08-24T05:44:37.633Z,99.90
2022-08-24T05:46:39.292Z,99.90
2022-08-24T05:48:40.992Z,99.90
2022-08-24T05:50:42.617Z,99.90
2022-08-24T05:52:44.264Z,99.90
2022-08-24T05:54:46.120Z,99.90
2022-08-24T05:56:48.012Z,99.90
2022-08-24T05:58:49.654Z,99.90
2022-08-24T06:00:51.319Z,99.90
2022-08-24T06:02:53.211Z,99.90
2022-08-24T06:04:55.356Z,99.90
2022-08-24T06:06:56.982Z,99.90
2022-08-24T06:09:01.463Z,99.90
2022-08-24T06:11:03.399Z,99.90
2022-08-24T06:13:07.054Z,99.90
2022-08-24T06:15:08.869Z,99.90
2022-08-24T06:17:10.696Z,99.90
2022-08-24T06:19:13.302Z,99.90
2022-08-24T06:21:16.495Z,99.90
2022-08-24T06:23:18.409Z,99.90
2022-08-24T06:25:38.588Z,99.90
2022-08-24T06:27:41.471Z,99.90
2022-08-24T06:29:43.140Z,99.90
2022-08-24T06:31:45.930Z,99.90
2022-08-24T06:33:48.221Z,99.90
2022-08-24T06:35:49.853Z,99.90
2022-08-24T06:37:51.542Z,99.90
2022-08-24T06:39:54.883Z,99.90
2022-08-24T06:41:56.883Z,99.90
2022-08-24T06:43:59.107Z,99.90
2022-08-24T06:46:00.963Z,99.90
2022-08-24T06:48:02.714Z,99.90
2022-08-24T06:50:04.825Z,99.90
2022-08-24T06:52:06.532Z,99.90
2022-08-24T06:54:08.364Z,99.90
2022-08-24T06:56:10.310Z,99.90
2022-08-24T06:58:11.946Z,99.90
2022-08-24T07:00:14.672Z,99.90
2022-08-24T07:02:18.907Z,99.90
2022-08-24T07:04:21.338Z,99.90
2022-08-24T07:06:25.266Z,99.90
2022-08-24T07:08:26.980Z,99.90
2022-08-24T07:10:30.455Z,99.90
2022-08-24T07:12:32.152Z,99.90
2022-08-24T07:14:33.916Z,99.90
2022-08-24T07:16:36.063Z,99.90
2022-08-24T07:18:37.890Z,99.90
2022-08-24T07:20:43.119Z,99.90
2022-08-24T07:22:45.724Z,99.90
2022-08-24T07:24:47.454Z,99.90
2022-08-24T07:26:49.177Z,99.90
2022-08-24T07:28:59.483Z,99.90
2022-08-24T07:31:03.615Z,99.90
2022-08-24T07:33:05.412Z,99.90
2022-08-24T07:35:08.563Z,99.90
2022-08-24T07:37:10.239Z,99.90
2022-08-24T07:39:11.936Z,99.90
2022-08-24T07:41:38.175Z,99.90
2022-08-24T07:43:36.059Z,99.90
2022-08-24T07:45:42.811Z,99.90
2022-08-24T07:47:54.635Z,99.90
2022-08-24T07:49:57.289Z,99.90
2022-08-24T07:51:59.002Z,99.90
2022-08-24T07:54:01.953Z,99.90
2022-08-24T07:56:03.784Z,99.90
2022-08-24T07:58:05.465Z,99.90
2022-08-24T08:00:09.297Z,99.90
2022-08-24T08:02:11.693Z,99.90
2022-08-24T08:04:15.297Z,99.90
2022-08-24T08:06:17.296Z,99.90
2022-08-24T08:08:19.328Z,99.90
2022-08-24T08:10:23.261Z,99.90
2022-08-24T08:12:25.104Z,99.90
2022-08-24T08:14:26.750Z,99.90
2022-08-24T08:16:28.416Z,99.90
2022-08-24T08:18:30.950Z,99.90
2022-08-24T08:20:32.828Z,99.90
2022-08-24T08:22:52.858Z,99.90
2022-08-24T08:24:54.702Z,99.90
2022-08-24T08:26:57.726Z,99.90
2022-08-24T08:28:59.759Z,99.90
2022-08-24T08:31:02.775Z,99.90
2022-08-24T08:33:04.597Z,99.90
2022-08-24T08:35:06.536Z,99.90
2022-08-24T08:37:08.644Z,99.90
2022-08-24T08:39:11.754Z,99.90
2022-08-24T08:41:13.450Z,99.90
2022-08-24T08:43:33.603Z,99.90
2022-08-24T08:45:43.691Z,99.90
2022-08-24T08:47:45.328Z,99.90
2022-08-24T08:49:50.064Z,99.90
2022-08-24T08:51:51.742Z,99.90
2022-08-24T08:54:12.263Z,99.90
2022-08-24T08:56:23.684Z,99.90
2022-08-24T08:58:40.065Z,99.90
2022-08-24T09:00:50.884Z,99.90
2022-08-24T09:03:17.310Z,99.90
2022-08-24T09:05:34.380Z,99.90
2022-08-24T09:07:36.123Z,99.90
2022-08-24T09:09:37.741Z,99.90
2022-08-24T09:11:45.551Z,99.90
2022-08-24T09:13:59.370Z,99.90
2022-08-24T09:16:19.774Z,99.90
2022-08-24T09:18:30.370Z,99.90
2022-08-24T09:20:57.577Z,99.90
2022-08-24T09:23:19.457Z,99.90
2022-08-24T09:25:28.633Z,99.90
2022-08-24T09:27:35.663Z,99.90
2022-08-24T09:30:00.780Z,99.90
2022-08-24T09:32:08.344Z,99.90
2022-08-24T09:34:19.423Z,99.90
2022-08-24T09:36:23.874Z,99.90
2022-08-24T09:38:38.203Z,99.90
2022-08-24T09:41:05.424Z,99.90
2022-08-24T09:43:13.154Z,99.90
2022-08-24T09:45:17.831Z,99.90
2022-08-24T09:47:34.766Z,99.90
2022-08-24T09:49:55.575Z,99.90
2022-08-24T09:51:57.378Z,99.90
2022-08-24T09:54:11.309Z,99.90
2022-08-24T09:56:24.772Z,99.90
2022-08-24T09:58:26.421Z,99.90
2022-08-24T10:00:46.754Z,99.90
2022-08-24T10:02:54.287Z,99.90
2022-08-24T10:04:59.035Z,99.90
2022-08-24T10:07:10.097Z,99.90
2022-08-24T10:09:12.005Z,99.90
2022-08-24T10:11:22.756Z,99.90
2022-08-24T10:13:43.302Z,99.90
2022-08-24T10:15:50.670Z,99.90
2022-08-24T10:18:11.313Z,99.90
2022-08-24T10:20:25.116Z,99.90
2022-08-24T10:22:33.271Z,99.90
2022-08-24T10:24:37.814Z,99.90
2022-08-24T10:26:52.101Z,99.90
2022-08-24T10:29:07.359Z,99.90
2022-08-24T10:31:13.007Z,99.90
2022-08-24T10:33:14.950Z,99.90
2022-08-24T10:35:22.654Z,99.90
2022-08-24T10:37:47.502Z,99.90
2022-08-24T10:39:49.248Z,99.90
2022-08-24T10:42:10.656Z,99.90
2022-08-24T10:44:22.671Z,99.90
2022-08-24T10:46:43.213Z,99.90
2022-08-24T10:48:47.813Z,99.90
2022-08-24T10:51:04.398Z,99.90
2022-08-24T10:53:06.131Z,99.90
2022-08-24T10:55:27.582Z,99.90
2022-08-24T10:57:42.254Z,99.90
2022-08-24T10:59:51.343Z,99.90
2022-08-24T11:02:21.322Z,99.90
2022-08-24T11:04:28.030Z,99.90
2022-08-24T11:06:35.457Z,99.90
2022-08-24T11:08:50.451Z,99.90
2022-08-24T11:11:12.295Z,99.10
2022-08-24T11:13:24.554Z,99.90
2022-08-24T11:15:28.100Z,99.40
2022-08-24T11:17:31.584Z,98.20
2022-08-24T11:19:34.989Z,99.90
2022-08-24T11:21:42.530Z,96.90
2022-08-24T11:23:44.468Z,95.10
2022-08-24T11:26:03.741Z,93.80
2022-08-24T11:28:09.518Z,96.70
2022-08-24T11:30:21.660Z,92.50
2022-08-24T11:32:28.956Z,92.10
2022-08-24T11:34:33.192Z,86.80
2022-08-24T11:36:36.468Z,92.10
2022-08-24T11:38:38.098Z,92.80
2022-08-24T11:40:52.970Z,92.40
2022-08-24T11:43:09.847Z,85.80
2022-08-24T11:45:30.067Z,92.80
2022-08-24T11:47:37.823Z,91.80
2022-08-24T11:49:42.509Z,80.40
2022-08-24T11:51:53.908Z,74.20
2022-08-24T11:54:03.022Z,74.10
2022-08-24T11:56:05.336Z,81.90
2022-08-24T11:58:30.100Z,71.50
2022-08-24T12:00:50.432Z,76.00
2022-08-24T12:03:04.600Z,70.70
2022-08-24T12:05:25.374Z,67.60
2022-08-24T12:07:33.838Z,66.80
2022-08-24T12:09:50.890Z,67.50
2022-08-24T12:11:59.659Z,78.20
2022-08-24T12:14:12.429Z,69.00
2022-08-24T12:16:17.162Z,70.20
2022-08-24T12:18:21.667Z,72.00
2022-08-24T12:20:31.999Z,71.50
2022-08-24T12:22:33.941Z,71.70
2022-08-24T12:24:45.440Z,58.40
2022-08-24T12:26:49.513Z,58.70
2022-08-24T12:28:54.636Z,56.90
2022-08-24T12:30:57.990Z,55.50
2022-08-24T12:33:05.795Z,68.70
2022-08-24T12:35:07.574Z,70.90
2022-08-24T12:37:16.218Z,65.10
2022-08-24T12:39:34.763Z,58.40
2022-08-24T12:41:41.779Z,58.80
2022-08-24T12:43:51.679Z,57.50
2022-08-24T12:45:55.926Z,62.60
2022-08-24T12:48:10.528Z,57.60
2022-08-24T12:50:31.194Z,57.50
2022-08-24T12:52:35.886Z,60.90
2022-08-24T12:54:37.511Z,64.90
2022-08-24T12:56:42.326Z,60.20
2022-08-24T12:58:54.609Z,68.00
2022-08-24T13:00:57.328Z,59.10
2022-08-24T13:03:01.565Z,63.70
2022-08-24T13:05:15.458Z,62.80
2022-08-24T13:07:23.463Z,65.40
2022-08-24T13:09:33.404Z,66.60
2022-08-24T13:11:35.361Z,68.50
2022-08-24T13:13:55.250Z,62.80
2022-08-24T13:15:57.855Z,65.70
2022-08-24T13:18:03.251Z,60.30
2022-08-24T13:20:17.031Z,60.20
2022-08-24T13:22:38.405Z,81.30
2022-08-24T13:24:41.828Z,68.20
2022-08-24T13:26:43.469Z,71.10
2022-08-24T13:28:47.039Z,64.20
2022-08-24T13:30:54.708Z,71.60
2022-08-24T13:33:17.711Z,72.70
2022-08-24T13:35:31.460Z,64.80
2022-08-24T13:37:33.220Z,66.00
2022-08-24T13:39:54.282Z,63.90
2022-08-24T13:42:14.482Z,70.10
2022-08-24T13:44:27.864Z,66.60
2022-08-24T13:46:47.885Z,65.50
2022-08-24T13:48:58.627Z,57.40
2022-08-24T13:51:09.170Z,58.60
2022-08-24T13:53:29.631Z,59.90
2022-08-24T13:55:35.494Z,65.70
2022-08-24T13:57:56.160Z,61.70
2022-08-24T14:00:17.402Z,66.10
2022-08-24T14:02:38.227Z,71.30
2022-08-24T14:04:40.158Z,71.70
2022-08-24T14:06:50.886Z,67.40
2022-08-24T14:09:01.836Z,71.80
2022-08-24T14:11:03.535Z,79.70
2022-08-24T14:13:26.663Z,71.90
2022-08-24T14:15:45.489Z,75.20
2022-08-24T14:18:06.213Z,71.30
2022-08-24T14:20:08.406Z,71.70
2022-08-24T14:22:10.024Z,72.50
2022-08-24T14:24:21.001Z,73.30
2022-08-24T14:26:43.831Z,77.60
2022-08-24T14:28:45.650Z,72.30
2022-08-24T14:30:50.366Z,74.10
2022-08-24T14:32:59.111Z,72.70
2022-08-24T14:35:30.363Z,73.00
2022-08-24T14:37:56.622Z,74.40
2022-08-24T14:40:17.464Z,71.90
2022-08-24T14:42:19.113Z,65.10
2022-08-24T14:44:20.964Z,67.10
2022-08-24T14:46:29.108Z,77.50
2022-08-24T14:48:43.942Z,73.90
2022-08-24T14:51:01.820Z,76.40
2022-08-24T14:53:22.460Z,68.50
2022-08-24T14:55:24.088Z,68.60
2022-08-24T14:57:28.702Z,63.20
2022-08-24T14:59:54.997Z,71.20
2022-08-24T15:02:16.212Z,66.80
2022-08-24T15:04:27.446Z,64.60
2022-08-24T15:06:39.026Z,61.80
2022-08-24T15:08:44.010Z,65.60
2022-08-24T15:10:50.098Z,65.80
2022-08-24T15:12:57.241Z,61.50
2022-08-24T15:15:05.950Z,69.30
2022-08-24T15:17:07.817Z,55.90
2022-08-24T15:19:15.462Z,57.50
2022-08-24T15:21:43.406Z,53.80
2022-08-24T15:23:49.507Z,59.40
2022-08-24T15:25:51.139Z,55.50
2022-08-24T15:27:57.369Z,59.80
2022-08-24T15:30:00.502Z,57.70
2022-08-24T15:32:11.573Z,52.20
2022-08-24T15:34:13.693Z,53.60
2022-08-24T15:36:17.138Z,55.30
2022-08-24T15:38:39.038Z,59.50
2022-08-24T15:40:40.779Z,55.50
2022-08-24T15:42:48.510Z,52.80
2022-08-24T15:44:51.267Z,54.50
2022-08-24T15:46:55.643Z,57.10
2022-08-24T15:49:02.726Z,57.40
2022-08-24T15:51:05.207Z,56.70
2022-08-24T15:53:24.981Z,60.50
2022-08-24T15:55:26.584Z,58.00
2022-08-24T15:57:30.174Z,57.70
2022-08-24T15:59:31.852Z,56.10
2022-08-24T16:01:52.306Z,59.00
2022-08-24T16:03:56.821Z,55.50
2022-08-24T16:06:16.199Z,54.90
2022-08-24T16:08:18.045Z,57.10
2022-08-24T16:10:28.609Z,59.50
2022-08-24T16:12:32.575Z,58.60
2022-08-24T16:14:36.483Z,56.70
2022-08-24T16:16:40.254Z,54.50
2022-08-24T16:18:49.815Z,56.80
2022-08-24T16:20:51.657Z,58.40
2022-08-24T16:23:04.922Z,55.70
2022-08-24T16:25:25.198Z,57.70
2022-08-24T16:27:46.826Z,59.60
2022-08-24T16:29:52.395Z,56.70
2022-08-24T16:32:04.919Z,65.20
2022-08-24T16:34:18.658Z,60.70
2022-08-24T16:36:20.768Z,65.20
2022-08-24T16:38:23.077Z,62.50
2022-08-24T16:40:25.589Z,69.80
2022-08-24T16:42:28.963Z,67.20
2022-08-24T16:44:35.284Z,76.00
2022-08-24T16:46:38.170Z,76.80
2022-08-24T16:48:40.258Z,73.70
2022-08-24T16:50:42.016Z,75.20
2022-08-24T16:52:43.771Z,75.20
2022-08-24T16:54:46.133Z,75.10
2022-08-24T16:56:47.875Z,78.10
2022-08-24T16:58:49.609Z,75.90
2022-08-24T17:00:51.402Z,79.10
2022-08-24T17:02:53.239Z,79.30
2022-08-24T17:04:54.986Z,78.80
2022-08-24T17:06:56.757Z,82.80
2022-08-24T17:08:58.738Z,84.00
2022-08-24T17:11:00.538Z,81.80
2022-08-24T17:13:02.369Z,84.80
2022-08-24T17:15:04.727Z,87.00
2022-08-24T17:17:10.456Z,86.40
2022-08-24T17:19:13.356Z,86.30
2022-08-24T17:21:16.035Z,85.70
2022-08-24T17:23:17.693Z,85.80
2022-08-24T17:25:19.295Z,85.80
2022-08-24T17:27:22.383Z,86.40
2022-08-24T17:29:24.791Z,90.30
2022-08-24T17:31:29.201Z,90.60
2022-08-24T17:33:31.381Z,88.00
2022-08-24T17:35:34.105Z,90.50
2022-08-24T17:37:36.969Z,90.00
2022-08-24T17:39:38.785Z,91.00
2022-08-24T17:41:40.400Z,93.80
2022-08-24T17:43:42.569Z,92.30
2022-08-24T17:45:44.429Z,94.20
2022-08-24T17:47:46.587Z,92.90
2022-08-24T17:49:48.263Z,97.00
2022-08-24T17:51:50.026Z,96.40
2022-08-24T17:53:52.097Z,97.40
2022-08-24T17:55:53.804Z,97.10
2022-08-24T17:57:55.524Z,98.40
2022-08-24T17:59:57.143Z,97.30
2022-08-24T18:02:00.094Z,99.10
2022-08-24T18:04:01.754Z,99.90
2022-08-24T18:06:03.390Z,99.80
2022-08-24T18:08:06.061Z,99.90
2022-08-24T18:10:08.695Z,99.90
2022-08-24T18:12:10.302Z,99.90
2022-08-24T18:14:12.282Z,99.90
2022-08-24T18:16:17.579Z,99.90
2022-08-24T18:18:19.345Z,99.90
2022-08-24T18:20:22.881Z,99.90
2022-08-24T18:22:24.568Z,99.90
2022-08-24T18:24:26.350Z,99.90
2022-08-24T18:26:28.856Z,99.90
2022-08-24T18:28:30.958Z,99.90
2022-08-24T18:30:32.727Z,99.90
2022-08-24T18:32:39.595Z,99.90
2022-08-24T18:34:41.856Z,99.90
2022-08-24T18:36:43.482Z,99.90
2022-08-24T18:38:45.164Z,99.90
2022-08-24T18:40:52.186Z,99.90
2022-08-24T18:42:55.382Z,99.90
2022-08-24T18:44:57.221Z,99.90
2022-08-24T18:46:59.420Z,99.90
2022-08-24T18:49:01.521Z,99.90
2022-08-24T18:51:03.646Z,99.90
2022-08-24T18:53:05.516Z,99.90
2022-08-24T18:55:07.972Z,99.90
2022-08-24T18:57:09.686Z,99.90
2022-08-24T18:59:13.898Z,99.90
2022-08-24T19:01:15.805Z,99.90
2022-08-24T19:03:18.804Z,99.90
2022-08-24T19:05:21.958Z,99.90
2022-08-24T19:07:25.232Z,99.90
2022-08-24T19:09:30.728Z,99.90
2022-08-24T19:11:35.456Z,99.90
2022-08-24T19:13:38.331Z,99.90
2022-08-24T19:15:40.640Z,99.90
2022-08-24T19:17:42.703Z,99.90
2022-08-24T19:19:45.756Z,99.90
2022-08-24T19:21:47.604Z,99.90
2022-08-24T19:23:49.560Z,99.90
2022-08-24T19:25:51.707Z,99.90
2022-08-24T19:27:55.041Z,99.90
2022-08-24T19:29:56.810Z,99.90
2022-08-24T19:31:58.673Z,99.90
2022-08-24T19:34:03.452Z,99.90
2022-08-24T19:36:06.025Z,99.90
2022-08-24T19:38:07.964Z,99.90
2022-08-24T19:40:09.904Z,99.90
2022-08-24T19:42:12.952Z,99.90
2022-08-24T19:44:34.884Z,99.90
2022-08-24T19:46:36.589Z,99.90
2022-08-24T19:48:39.741Z,99.90
2022-08-24T19:50:41.495Z,99.90
2022-08-24T19:52:43.406Z,99.90
2022-08-24T19:54:45.909Z,99.90
2022-08-24T19:56:47.890Z,99.90
2022-08-24T19:58:49.530Z,99.90
2022-08-24T20:00:58.138Z,99.90
2022-08-24T20:03:01.647Z,99.90
2022-08-24T20:05:03.338Z,99.90
2022-08-24T20:07:05.064Z,99.90
2022-08-24T20:09:06.865Z,99.90
2022-08-24T20:11:08.999Z,99.90
2022-08-24T20:13:10.706Z,99.90
2022-08-24T20:15:12.564Z,99.90
2022-08-24T20:17:14.189Z,99.90
2022-08-24T20:19:23.796Z,99.90
2022-08-24T20:21:30.001Z,99.90
2022-08-24T20:23:34.482Z,99.90
2022-08-24T20:25:37.491Z,99.90
2022-08-24T20:27:39.326Z,99.90
2022-08-24T20:29:40.952Z,99.90
2022-08-24T20:31:43.079Z,99.90
2022-08-24T20:33:45.837Z,99.90
2022-08-24T20:35:47.542Z,99.90
2022-08-24T20:37:49.252Z,99.90
2022-08-24T20:39:55.247Z,99.90
2022-08-24T20:41:57.182Z,99.90
2022-08-24T20:43:59.035Z,99.90
2022-08-24T20:46:01.638Z,99.90
2022-08-24T20:48:04.758Z,99.90
2022-08-24T20:50:06.980Z,99.90
2022-08-24T20:52:08.742Z,99.90
2022-08-24T20:54:10.423Z,99.90
2022-08-24T20:56:15.559Z,99.90
2022-08-24T20:58:19.194Z,99.90
2022-08-24T21:00:21.939Z,99.90
2022-08-24T21:02:27.385Z,99.90
2022-08-24T21:04:29.887Z,99.90
2022-08-24T21:06:31.686Z,99.90
2022-08-24T21:08:33.401Z,99.90
2022-08-24T21:10:35.112Z,99.90
2022-08-24T21:12:36.737Z,99.90
2022-08-24T21:14:38.352Z,99.90
2022-08-24T21:16:40.745Z,99.90
2022-08-24T21:18:42.725Z,99.90
2022-08-24T21:20:59.905Z,99.90
2022-08-24T21:23:05.876Z,99.90
2022-08-24T21:25:09.325Z,99.90
2022-08-24T21:27:11.054Z,99.90
2022-08-24T21:29:12.662Z,99.90
2022-08-24T21:31:14.329Z,99.90
2022-08-24T21:33:34.923Z,99.90
2022-08-24T21:35:37.145Z,99.90
2022-08-24T21:37:39.114Z,99.90
2022-08-24T21:39:41.258Z,99.90
2022-08-24T21:41:42.923Z,99.90
2022-08-24T21:43:44.632Z,99.90
2022-08-24T21:45:48.736Z,99.90
2022-08-24T21:47:50.378Z,99.90
2022-08-24T21:49:52.004Z,99.90
2022-08-24T21:51:53.682Z,99.90
2022-08-24T21:53:59.506Z,99.90
2022-08-24T21:56:02.440Z,99.90
2022-08-24T21:58:05.853Z,99.90
2022-08-24T22:00:09.357Z,99.90
2022-08-24T22:02:13.350Z,99.90
2022-08-24T22:04:18.355Z,99.90
2022-08-24T22:06:20.008Z,99.90
2022-08-24T22:08:22.159Z,99.90
2022-08-24T22:10:31.547Z,99.90
2022-08-24T22:12:33.448Z,99.90
2022-08-24T22:14:37.210Z,99.90
2022-08-24T22:16:40.799Z,99.90
2022-08-24T22:18:43.596Z,99.90
2022-08-24T22:20:46.212Z,99.90
2022-08-24T22:22:49.099Z,99.90
2022-08-24T22:24:52.241Z,99.90
2022-08-24T22:26:56.539Z,99.90
2022-08-24T22:29:00.243Z,99.90
2022-08-24T22:31:04.446Z,99.90
2022-08-24T22:33:07.891Z,99.90
2022-08-24T22:35:10.948Z,99.90
2022-08-24T22:37:13.459Z,99.90
2022-08-24T22:39:17.088Z,99.90
2022-08-24T22:41:21.826Z,99.90
2022-08-24T22:45:50.072Z,99.90
2022-08-24T22:46:36.058Z,99.90
2022-08-24T23:02:20.148Z,99.90
2022-08-24T23:26:36.040Z,99.90
2022-08-24T23:28:32.492Z,99.90
2022-08-24T23:30:35.499Z,99.90
2022-08-24T23:32:37.550Z,99.90
2022-08-24T23:34:39.274Z,99.90
2022-08-24T23:36:41.708Z,99.90
2022-08-24T23:38:43.846Z,99.90
2022-08-24T23:40:45.467Z,99.90
2022-08-24T23:42:47.091Z,99.90
2022-08-24T23:44:48.805Z,99.90
2022-08-24T23:46:50.458Z,99.90
2022-08-24T23:48:55.831Z,99.90
2022-08-24T23:50:58.362Z,99.90
2022-08-24T23:53:00.339Z,99.90
2022-08-24T23:55:15.605Z,99.90
2022-08-24T23:57:23.506Z,99.90
2022-08-24T23:59:27.093Z,99.90
